Alderson, Oklahoma
Current Conditions -  °F | °C
As of 2:53 AM on Wednesday 22 Oct 2014 (Local Time) from KMLC Reporting Station
Overcast Overcast  
Wind Chill: 63°   Ceiling: 6500
Heat Index: 63°   Visibility: 7mi
Dew Point: 60°   Wind: 0mph
Humidity: 90%   Direction: NA
Pressure: 30.09"   Gusts: NA
Location:  34.9°N, 95.69°W
Report Text: KMLC 220753Z AUTO 00000KT 7SM BKN065 OVC090 17/16 A3009 RMK AO2 SLP183 T01720156
Loading
Personal Weather Stations






























Interactive Weather Map
Tropical Storm Tracking
New forecast layout! Learn more

10-Day Weather Forecast

Advertisements
Track Severe Weather on mobile